Time;durP1;ratioP1;P1;durP2;ratioP2;P2;SDS_P1;SDS_P2;PMS_P1;PMS_P2;Temp;Humidity;BMP_temperature;BMP_pressure;BME280_temperature;BME280_humidity;BME280_pressure;Samples;Min_cycle;Max_cycle;Signal;HPM_P1;HPM_P2
2022/11/28 00:00:55;;;;;;;15.98;9.15;;;;;;;5.85;100.00;100849.97;4951991;28;20049;-73
2022/11/28 00:03:21;;;;;;;20.85;8.75;;;;;;;5.76;100.00;100848.94;4987634;28;20034;-75
2022/11/28 00:05:47;;;;;;;19.10;8.93;;;;;;;5.80;100.00;100849.53;4982140;28;20104;-73
2022/11/28 00:08:13;;;;;;;16.80;8.45;;;;;;;5.87;100.00;100845.53;4987310;28;20034;-73
2022/11/28 00:10:39;;;;;;;14.55;8.68;;;;;;;5.85;100.00;100844.84;4953309;28;20459;-72
2022/11/28 00:13:05;;;;;;;14.93;7.80;;;;;;;5.88;100.00;100839.44;4977817;28;20053;-73
2022/11/28 00:15:30;;;;;;;16.80;8.45;;;;;;;5.89;100.00;100835.91;4967640;28;20457;-72
2022/11/28 00:17:56;;;;;;;19.73;9.57;;;;;;;5.89;100.00;100823.03;4982936;28;20027;-74
2022/11/28 00:20:21;;;;;;;15.45;7.80;;;;;;;5.79;100.00;100833.28;4984286;28;20034;-72
2022/11/28 00:22:47;;;;;;;15.05;7.53;;;;;;;5.80;100.00;100827.19;4969218;28;20050;-72
2022/11/28 00:25:12;;;;;;;15.43;7.43;;;;;;;5.74;100.00;100827.69;4967623;28;20034;-71
2022/11/28 00:27:38;;;;;;;16.98;8.07;;;;;;;5.83;100.00;100818.41;4966321;28;20030;-73
2022/11/28 00:30:04;;;;;;;14.63;8.05;;;;;;;5.83;100.00;100816.63;4963963;28;20088;-72
2022/11/28 00:32:30;;;;;;;18.40;8.60;;;;;;;5.87;100.00;100816.41;4990593;28;20490;-72
2022/11/28 00:34:55;;;;;;;16.88;8.40;;;;;;;5.87;100.00;100813.84;4983868;28;20045;-72
2022/11/28 00:37:21;;;;;;;15.10;8.05;;;;;;;5.78;100.00;100797.38;4966631;28;20058;-72
2022/11/28 00:39:46;;;;;;;15.98;8.40;;;;;;;5.78;100.00;100793.06;4965639;28;20037;-72
2022/11/28 00:42:11;;;;;;;15.90;8.82;;;;;;;5.77;100.00;100804.28;4953413;28;20040;-73
2022/11/28 00:44:37;;;;;;;19.63;8.23;;;;;;;5.77;100.00;100788.03;4966263;28;20018;-72
2022/11/28 00:47:02;;;;;;;14.60;8.43;;;;;;;5.68;100.00;100792.16;4964030;28;20290;-73
2022/11/28 00:49:28;;;;;;;16.30;8.98;;;;;;;5.78;100.00;100792.22;4962007;28;20041;-73
2022/11/28 00:51:53;;;;;;;16.30;8.07;;;;;;;5.78;100.00;100787.06;4968364;28;20042;-73
2022/11/28 00:54:19;;;;;;;16.30;8.18;;;;;;;5.75;100.00;100785.56;4983296;28;20361;-71
2022/11/28 00:56:44;;;;;;;21.40;8.77;;;;;;;5.69;100.00;100787.81;4964517;28;20105;-74
2022/11/28 00:59:10;;;;;;;17.65;8.43;;;;;;;5.81;100.00;100786.84;4980075;28;20532;-73
2022/11/28 01:01:42;;;;;;;17.02;8.10;;;;;;;5.77;100.00;100781.13;4979617;28;20038;-73
2022/11/28 01:04:10;;;;;;;17.73;8.23;;;;;;;5.81;100.00;100785.06;4965024;28;20124;-71
2022/11/28 01:06:39;;;;;;;16.90;8.70;;;;;;;5.78;100.00;100776.78;4965039;28;20675;-74
2022/11/28 01:09:08;;;;;;;17.55;9.15;;;;;;;5.72;100.00;100782.44;4982503;28;20034;-73
2022/11/28 01:11:33;;;;;;;15.65;8.27;;;;;;;5.78;100.00;100769.06;4982177;28;20061;-70
2022/11/28 01:14:00;;;;;;;19.55;8.65;;;;;;;5.81;100.00;100766.25;4962857;28;20034;-71
2022/11/28 01:16:27;;;;;;;14.73;8.45;;;;;;;5.80;100.00;100770.59;4951073;28;20150;-73
2022/11/28 01:18:53;;;;;;;13.35;7.72;;;;;;;5.76;100.00;100771.75;4982195;28;20045;-72
2022/11/28 01:21:18;;;;;;;14.68;7.55;;;;;;;5.84;100.00;100774.53;4973152;28;20441;-73
2022/11/28 01:23:44;;;;;;;14.27;7.57;;;;;;;5.84;100.00;100774.53;4969370;28;20037;-72
2022/11/28 01:26:21;;;;;;;13.98;7.63;;;;;;;5.89;100.00;100781.06;4980293;28;20396;-72
2022/11/28 01:28:47;;;;;;;16.27;7.68;;;;;;;5.89;100.00;100781.06;4978636;28;21294;-73
2022/11/28 01:31:16;;;;;;;15.35;8.25;;;;;;;5.83;100.00;100783.19;4963420;28;20050;-73
2022/11/28 01:33:42;;;;;;;14.68;7.57;;;;;;;5.84;100.00;100776.31;4982340;28;20044;-72
2022/11/28 01:36:08;;;;;;;15.60;8.13;;;;;;;5.89;100.00;100778.47;4979830;28;20214;-73
2022/11/28 01:38:34;;;;;;;14.60;7.47;;;;;;;5.89;100.00;100787.00;4985039;28;20412;-71
2022/11/28 01:41:00;;;;;;;14.13;7.57;;;;;;;5.91;100.00;100785.13;4978262;28;20088;-72
2022/11/28 01:43:26;;;;;;;17.52;8.20;;;;;;;5.86;100.00;100784.72;4966423;28;20041;-72
2022/11/28 01:45:52;;;;;;;14.43;7.70;;;;;;;5.81;100.00;100786.84;4979102;28;20038;-72
2022/11/28 01:48:25;;;;;;;16.80;7.70;;;;;;;5.81;100.00;100786.84;4966265;28;20044;-72
2022/11/28 01:50:55;;;;;;;17.35;7.80;;;;;;;5.89;100.00;100793.94;4977586;28;20585;-72
2022/11/28 01:53:21;;;;;;;16.25;8.57;;;;;;;5.84;100.00;100789.16;4963479;28;20268;-72
2022/11/28 01:56:00;;;;;;;17.30;7.38;;;;;;;5.81;100.00;100789.41;4966307;28;20133;-73
2022/11/28 01:58:28;;;;;;;13.75;7.25;;;;;;;5.85;100.00;100781.31;4962048;28;21088;-72
2022/11/28 02:00:54;;;;;;;17.48;7.88;;;;;;;5.89;100.00;100791.34;5011741;22;20072;-78
2022/11/28 02:03:24;;;;;;;13.95;8.00;;;;;;;5.90;100.00;100790.44;4998112;28;20042;-78
2022/11/28 02:05:51;;;;;;;18.40;9.18;;;;;;;5.97;100.00;100783.84;4968774;28;20706;-77
2022/11/28 02:08:17;;;;;;;22.45;7.78;;;;;;;5.98;100.00;100783.72;4966317;28;20045;-77
2022/11/28 02:11:09;;;;;;;18.20;8.43;;;;;;;5.95;100.00;100789.13;4966271;28;20059;-77
2022/11/28 02:13:48;;;;;;;17.88;8.43;;;;;;;5.91;100.00;100779.19;4981432;28;20407;-78
2022/11/28 02:16:40;;;;;;;18.13;8.93;;;;;;;5.87;100.00;100783.75;5013894;22;20037;-76
2022/11/28 02:19:27;;;;;;;15.82;8.50;;;;;;;5.85;100.00;100783.88;4982824;28;20030;-77
2022/11/28 02:22:03;;;;;;;19.15;8.98;;;;;;;5.94;100.00;100773.78;4988833;28;20101;-76
2022/11/28 02:24:47;;;;;;;21.70;8.30;;;;;;;5.83;100.00;100772.88;4961712;28;20100;-77
2022/11/28 02:27:28;;;;;;;19.55;8.70;;;;;;;5.87;100.00;100772.66;4965572;28;20050;-76
2022/11/28 02:30:02;;;;;;;14.25;8.55;;;;;;;5.85;100.00;100773.56;4952056;28;20046;-76
2022/11/28 02:32:43;;;;;;;15.38;8.63;;;;;;;5.85;100.00;100762.47;4962527;28;20052;-76
2022/11/28 02:35:20;;;;;;;19.73;9.32;;;;;;;5.86;100.00;100766.69;4983312;28;20046;-76
2022/11/28 02:37:56;;;;;;;19.38;9.38;;;;;;;5.75;100.00;100764.19;4967258;28;20496;-77
2022/11/28 02:40:52;;;;;;;22.88;9.20;;;;;;;5.81;100.00;100773.97;4967452;28;20118;-76
2022/11/28 02:43:24;;;;;;;18.42;8.85;;;;;;;5.89;100.00;100766.44;4986502;28;20027;-76
2022/11/28 02:46:14;;;;;;;19.58;9.27;;;;;;;5.88;100.00;100759.66;4966423;28;20491;-76
2022/11/28 02:48:52;;;;;;;21.98;9.43;;;;;;;5.89;100.00;100750.97;4983722;28;20530;-77
2022/11/28 02:51:39;;;;;;;16.75;9.38;;;;;;;5.89;100.00;100752.75;4984382;28;20178;-77
2022/11/28 02:54:08;;;;;;;17.67;9.85;;;;;;;5.90;100.00;100755.19;4982163;28;20126;-77
2022/11/28 02:56:34;;;;;;;23.20;9.90;;;;;;;5.92;100.00;100752.50;4970123;28;20607;-76
2022/11/28 02:58:59;;;;;;;18.63;10.48;;;;;;;5.89;100.00;100755.31;4978789;28;20042;-76
2022/11/28 03:01:31;;;;;;;19.75;9.77;;;;;;;5.79;100.00;100753.50;4979132;28;20453;-76
2022/11/28 03:04:17;;;;;;;20.77;10.63;;;;;;;5.80;100.00;100754.31;4968621;28;20048;-77
2022/11/28 03:07:18;;;;;;;19.73;10.48;;;;;;;5.76;100.00;100752.94;4984741;28;20488;-76
2022/11/28 03:10:02;;;;;;;18.65;10.15;;;;;;;5.72;100.00;100761.84;4979662;28;20500;-76
2022/11/28 03:12:46;;;;;;;18.40;9.52;;;;;;;5.71;100.00;100752.50;4979530;28;20097;-76
2022/11/28 03:15:16;;;;;;;20.15;10.18;;;;;;;5.66;100.00;100756.25;4977186;28;20603;-76
2022/11/28 03:18:06;;;;;;;18.27;9.05;;;;;;;5.77;100.00;100749.44;4980779;28;20505;-76
2022/11/28 03:20:50;;;;;;;19.10;9.80;;;;;;;5.69;100.00;100754.38;4962978;28;20047;-76
2022/11/28 03:23:42;;;;;;;18.70;9.70;;;;;;;5.76;100.00;100747.78;4967672;28;20852;-77
2022/11/28 03:26:42;;;;;;;18.20;8.80;;;;;;;5.67;100.00;100746.81;4965933;28;20039;-76
2022/11/28 03:29:15;;;;;;;19.30;9.98;;;;;;;5.65;100.00;100749.50;4968595;28;20058;-77
2022/11/28 03:31:53;;;;;;;17.25;9.55;;;;;;;5.68;100.00;100752.75;4965975;28;20085;-77
2022/11/28 03:34:22;;;;;;;19.20;9.73;;;;;;;5.80;100.00;100746.59;4951356;28;20041;-77
2022/11/28 03:37:01;;;;;;;21.45;10.50;;;;;;;5.70;100.00;100745.72;4983716;28;20137;-77
2022/11/28 03:39:37;;;;;;;20.85;10.30;;;;;;;5.68;100.00;100758.72;4982908;28;20437;-77
2022/11/28 03:42:20;;;;;;;18.65;9.70;;;;;;;5.66;100.00;100753.69;4980279;28;20081;-77
2022/11/28 03:44:53;;;;;;;;;;;;;;;5.64;100.00;100747.03;4981414;28;20138;-77
2022/11/28 03:47:20;;;;;;;17.25;9.15;;;;;;;5.61;100.00;100755.00;4955757;28;19917;-77
2022/11/28 03:49:54;;;;;;;17.90;9.23;;;;;;;5.76;100.00;100756.31;4970852;28;20084;-76
2022/11/28 03:52:28;;;;;;;20.05;9.45;;;;;;;5.68;100.00;100758.72;4983935;28;20049;-76
2022/11/28 03:55:05;;;;;;;20.42;9.50;;;;;;;5.63;100.00;100750.53;4967403;28;20081;-77
2022/11/28 03:57:44;;;;;;;23.70;12.02;;;;;;;5.76;100.00;100750.38;4959358;28;20222;-77
2022/11/28 04:00:12;;;;;;;18.30;11.40;;;;;;;5.59;100.00;100742.25;4977814;28;20370;-77
2022/11/28 04:02:41;;;;;;;20.50;10.60;;;;;;;5.62;100.00;100748.94;4977522;28;20636;-77
2022/11/28 04:05:20;;;;;;;32.13;11.25;;;;;;;5.61;100.00;100740.41;4978848;28;20035;-76
2022/11/28 04:07:51;;;;;;;19.52;10.05;;;;;;;5.65;100.00;100746.09;4969435;28;20523;-77
2022/11/28 04:10:28;;;;;;;20.92;11.07;;;;;;;5.69;100.00;100733.78;4981239;28;20039;-76
2022/11/28 04:13:24;;;;;;;22.67;10.52;;;;;;;5.68;100.00;100729.59;4974110;28;20034;-76
2022/11/28 04:16:21;;;;;;;23.83;11.27;;;;;;;5.71;100.00;100737.88;4980736;28;20061;-76
2022/11/28 04:19:05;;;;;;;26.83;12.13;;;;;;;5.61;100.00;100750.69;4975896;28;20056;-76
2022/11/28 04:21:41;;;;;;;23.88;12.10;;;;;;;5.63;100.00;100759.09;4974098;28;20066;-77
2022/11/28 04:24:13;;;;;;;23.30;10.23;;;;;;;5.64;100.00;100765.84;4986073;28;20057;-76
2022/11/28 04:26:59;;;;;;;22.98;10.85;;;;;;;5.58;100.00;100773.28;4964690;28;20046;-77
2022/11/28 04:29:29;;;;;;;25.13;10.30;;;;;;;5.65;100.00;100770.06;4966334;28;20065;-77
2022/11/28 04:31:58;;;;;;;19.05;9.98;;;;;;;5.61;100.00;100760.13;4965473;28;20042;-76
2022/11/28 04:34:26;;;;;;;21.73;9.45;;;;;;;5.59;100.00;100767.97;4962378;28;20113;-78
2022/11/28 04:36:54;;;;;;;22.10;10.40;;;;;;;5.55;100.00;100761.47;4966205;28;20630;-77
2022/11/28 04:39:23;;;;;;;17.52;10.25;;;;;;;5.59;100.00;100769.75;4964138;28;20030;-77
2022/11/28 04:41:54;;;;;;;19.60;9.93;;;;;;;5.61;100.00;100771.28;4952162;28;20043;-77
2022/11/28 04:44:35;;;;;;;24.33;10.82;;;;;;;5.59;100.00;100764.59;4983464;28;20050;-76
2022/11/28 04:47:02;;;;;;;22.98;10.60;;;;;;;5.59;100.00;100767.16;4965817;28;20056;-77
2022/11/28 04:49:29;;;;;;;24.27;11.05;;;;;;;5.58;100.00;100761.22;4980804;28;21109;-77
2022/11/28 04:52:06;;;;;;;25.42;10.48;;;;;;;5.62;100.00;100754.88;4962891;28;20038;-77
2022/11/28 04:54:44;;;;;;;21.52;9.80;;;;;;;5.64;100.00;100757.34;4966586;28;20038;-76
2022/11/28 04:57:34;;;;;;;29.70;10.05;;;;;;;5.57;100.00;100761.34;4978220;28;20090;-78
2022/11/28 05:00:02;;;;;;;21.77;11.27;;;;;;;5.55;100.00;100758.06;4951541;28;20117;-77
2022/11/28 05:02:29;;;;;;;19.52;10.35;;;;;;;5.53;100.00;100759.97;4977514;28;20074;-77
2022/11/28 05:04:55;;;;;;;18.90;11.00;;;;;;;5.53;100.00;100765.91;4949315;28;20084;-77
2022/11/28 05:07:22;;;;;;;24.10;11.10;;;;;;;5.51;100.00;100757.50;4960949;28;20042;-77
2022/11/28 05:09:48;;;;;;;22.65;12.18;;;;;;;5.56;100.00;100755.38;4966435;28;20385;-77
2022/11/28 05:12:14;;;;;;;22.67;12.60;;;;;;;5.46;100.00;100757.06;4961730;28;20039;-77
2022/11/28 05:14:39;;;;;;;24.58;12.02;;;;;;;5.47;100.00;100753.56;4951821;28;20030;-77
2022/11/28 05:17:06;;;;;;;22.63;12.15;;;;;;;5.62;100.00;100756.66;4983768;28;20509;-76
2022/11/28 05:19:31;;;;;;;22.33;12.50;;;;;;;5.51;100.00;100760.06;4981661;28;20030;-76
2022/11/28 05:21:57;;;;;;;26.98;13.43;;;;;;;5.50;100.00;100755.88;4964253;28;20120;-77
2022/11/28 05:24:22;;;;;;;30.23;14.32;;;;;;;5.55;100.00;100753.75;4965858;28;20042;-77
2022/11/28 05:26:48;;;;;;;22.40;13.07;;;;;;;5.51;100.00;100759.28;4965500;28;20088;-77
2022/11/28 05:29:14;;;;;;;23.85;11.95;;;;;;;5.48;100.00;100762.88;4967504;28;20563;-77
2022/11/28 05:31:39;;;;;;;23.50;11.38;;;;;;;5.45;100.00;100758.81;4948209;28;20050;-77
2022/11/28 05:34:05;;;;;;;20.92;12.02;;;;;;;5.41;100.00;100757.44;4967678;28;20037;-77
2022/11/28 05:36:30;;;;;;;24.48;12.73;;;;;;;5.41;100.00;100754.88;4981420;28;20650;-78
2022/11/28 05:38:56;;;;;;;21.75;12.05;;;;;;;5.42;100.00;100755.66;4965183;28;20834;-77
2022/11/28 05:41:27;;;;;;;19.13;11.23;;;;;;;5.45;100.00;100758.00;4967693;28;20057;-77
2022/11/28 05:43:53;;;;;;;27.35;12.82;;;;;;;5.52;100.00;100755.75;4965025;28;20528;-77
2022/11/28 05:46:19;;;;;;;25.90;12.75;;;;;;;5.52;100.00;100748.88;4978844;28;20061;-77
2022/11/28 05:48:45;;;;;;;22.67;13.02;;;;;;;5.53;100.00;100747.09;4961940;28;20041;-77
2022/11/28 05:51:10;;;;;;;21.10;11.18;;;;;;;5.49;100.00;100754.25;4962603;28;20047;-77
2022/11/28 05:53:36;;;;;;;23.55;10.50;;;;;;;5.43;100.00;100750.41;4964389;28;20069;-77
2022/11/28 05:56:16;;;;;;;23.33;11.95;;;;;;;5.31;100.00;100761.66;4966390;28;20054;-77
2022/11/28 05:58:42;;;;;;;25.83;13.40;;;;;;;5.42;100.00;100742.81;4965142;28;20046;-77
2022/11/28 06:01:12;;;;;;;21.95;11.45;;;;;;;5.47;100.00;100738.94;4964037;28;20042;-76
2022/11/28 06:03:37;;;;;;;22.88;13.55;;;;;;;5.49;100.00;100743.16;4980406;28;20042;-76
2022/11/28 06:06:03;;;;;;;23.67;13.32;;;;;;;5.45;100.00;100732.28;4978761;28;20045;-77
2022/11/28 06:08:28;;;;;;;20.35;12.07;;;;;;;5.54;100.00;100730.72;4969755;28;20455;-76
2022/11/28 06:10:57;;;;;;;25.95;11.60;;;;;;;5.54;100.00;100728.13;4981782;28;20050;-76
2022/11/28 06:13:23;;;;;;;21.85;11.98;;;;;;;5.51;100.00;100726.63;4967195;28;20031;-76
2022/11/28 06:15:49;;;;;;;19.38;11.30;;;;;;;5.45;100.00;100722.00;4984669;28;20125;-76
2022/11/28 06:18:14;;;;;;;24.60;12.50;;;;;;;5.41;100.00;100721.44;4950938;28;20058;-76
2022/11/28 06:20:40;;;;;;;24.92;11.90;;;;;;;5.42;100.00;100732.53;4965132;28;20054;-77
2022/11/28 06:23:05;;;;;;;21.42;11.43;;;;;;;5.36;100.00;100728.69;4982943;28;20030;-76
2022/11/28 06:25:31;;;;;;;25.40;11.90;;;;;;;5.33;100.00;100725.56;4964690;28;20489;-77
2022/11/28 06:27:56;;;;;;;21.05;10.43;;;;;;;5.38;100.00;100737.09;4984432;28;20100;-77
2022/11/28 06:30:22;;;;;;;24.65;11.85;;;;;;;5.33;100.00;100738.41;4969868;28;20041;-77
2022/11/28 06:32:47;;;;;;;25.95;10.90;;;;;;;5.37;100.00;100738.06;4966119;28;20610;-77
2022/11/28 06:35:12;;;;;;;21.52;11.52;;;;;;;5.46;100.00;100742.47;4983101;28;20034;-76
2022/11/28 06:37:38;;;;;;;21.27;11.10;;;;;;;5.51;100.00;100739.50;4967312;28;20047;-77
2022/11/28 06:40:04;;;;;;;22.42;10.70;;;;;;;5.56;100.00;100744.28;4985683;28;20035;-77
2022/11/28 06:42:30;;;;;;;18.88;10.32;;;;;;;5.52;100.00;100745.44;4967663;28;20039;-76
2022/11/28 06:44:55;;;;;;;24.27;11.13;;;;;;;5.44;100.00;100738.34;4969424;28;20027;-76
2022/11/28 06:47:21;;;;;;;23.60;10.35;;;;;;;5.49;100.00;100738.00;4963702;28;20043;-76
2022/11/28 06:49:47;;;;;;;22.77;10.77;;;;;;;5.42;100.00;100741.06;4967920;28;20026;-77
2022/11/28 06:52:13;;;;;;;21.50;10.38;;;;;;;5.37;100.00;100744.94;4984030;28;20050;-77
2022/11/28 06:54:38;;;;;;;18.77;11.90;;;;;;;5.42;100.00;100743.63;4983337;28;20045;-77
2022/11/28 06:57:04;;;;;;;20.75;11.35;;;;;;;5.42;100.00;100746.19;4984604;28;20496;-76
2022/11/28 06:59:29;;;;;;;20.73;10.10;;;;;;;5.40;100.00;100749.84;4979239;28;20034;-75
2022/11/28 07:01:56;;;;;;;16.65;9.68;;;;;;;5.34;100.00;100748.56;4950124;28;20096;-76
2022/11/28 07:04:22;;;;;;;27.55;11.02;;;;;;;5.37;100.00;100753.47;4966365;28;20043;-75
2022/11/28 07:06:47;;;;;;;25.80;11.68;;;;;;;5.36;100.00;100749.25;4967036;28;20120;-75
2022/11/28 07:09:13;;;;;;;22.73;10.93;;;;;;;5.45;100.00;100751.09;4985510;28;20022;-75
2022/11/28 07:11:40;;;;;;;18.23;10.63;;;;;;;5.44;100.00;100756.34;4978506;28;20436;-75
2022/11/28 07:14:05;;;;;;;23.63;11.07;;;;;;;5.45;100.00;100752.88;4980389;28;20084;-76
2022/11/28 07:16:32;;;;;;;21.27;11.40;;;;;;;5.39;100.00;100750.78;4963602;28;20046;-76
2022/11/28 07:18:58;;;;;;;24.50;11.68;;;;;;;5.41;100.00;100764.34;4968374;28;20308;-75
2022/11/28 07:21:25;;;;;;;30.30;13.43;;;;;;;5.41;100.00;100760.00;4965703;28;20251;-75
2022/11/28 07:23:52;;;;;;;18.98;11.40;;;;;;;5.47;100.00;100756.94;4967071;28;20045;-75
2022/11/28 07:26:20;;;;;;;20.83;11.13;;;;;;;5.56;100.00;100762.28;4986284;28;20042;-75
2022/11/28 07:28:46;;;;;;;24.00;10.73;;;;;;;5.49;100.00;100756.81;4967743;28;20035;-76
2022/11/28 07:31:27;;;;;;;21.15;11.32;;;;;;;5.44;100.00;100751.22;4983424;28;20046;-76
2022/11/28 07:33:53;;;;;;;28.55;13.57;;;;;;;5.50;100.00;100763.59;4966292;28;21120;-75
2022/11/28 07:36:21;;;;;;;28.35;14.45;;;;;;;5.47;100.00;100756.13;4981813;28;20043;-76
2022/11/28 07:38:48;;;;;;;26.58;11.98;;;;;;;5.60;100.00;100758.53;4964916;28;20479;-75
2022/11/28 07:41:14;;;;;;;29.67;13.73;;;;;;;5.56;100.00;100765.66;4965568;28;20461;-76
2022/11/28 07:43:42;;;;;;;29.25;15.40;;;;;;;5.61;100.00;100770.44;4981854;28;20113;-75
2022/11/28 07:46:11;;;;;;;43.00;20.27;;;;;;;5.55;100.00;100770.94;4980132;28;20096;-75
2022/11/28 07:48:37;;;;;;;35.80;15.95;;;;;;;5.71;100.00;100765.34;4968073;28;20491;-76
2022/11/28 07:51:07;;;;;;;43.85;22.42;;;;;;;5.64;100.00;100763.28;4984915;28;20054;-75
2022/11/28 07:53:33;;;;;;;56.53;23.55;;;;;;;5.65;100.00;100758.94;4966266;28;20696;-76
2022/11/28 07:56:07;;;;;;;57.58;25.15;;;;;;;5.63;100.00;100761.66;4981474;28;20038;-75
2022/11/28 07:58:34;;;;;;;36.60;16.83;;;;;;;5.56;100.00;100765.66;4978064;28;20031;-76
2022/11/28 08:00:59;;;;;;;34.78;15.93;;;;;;;5.57;100.00;100761.34;4979809;22;20043;-74
2022/11/28 08:03:25;;;;;;;33.70;15.88;;;;;;;5.59;100.00;100756.88;4976916;28;20081;-75
2022/11/28 08:05:50;;;;;;;36.75;18.45;;;;;;;5.53;100.00;100768.47;4964571;28;20053;-76
2022/11/28 08:08:16;;;;;;;41.97;21.88;;;;;;;5.53;100.00;100771.06;4957099;28;20168;-76
2022/11/28 08:10:43;;;;;;;71.90;29.52;;;;;;;5.58;100.00;100768.94;4953369;28;20088;-75
2022/11/28 08:13:09;;;;;;;30.30;15.18;;;;;;;5.72;100.00;100777.28;4979420;28;20069;-75
2022/11/28 08:15:38;;;;;;;74.53;31.10;;;;;;;5.77;100.00;100767.44;4963121;28;20112;-76
2022/11/28 08:18:05;;;;;;;35.15;16.90;;;;;;;5.66;100.00;100774.25;4977720;28;20042;-75
2022/11/28 08:20:30;;;;;;;41.20;18.38;;;;;;;5.63;100.00;100771.97;4981966;28;20056;-76
2022/11/28 08:22:56;;;;;;;28.52;13.80;;;;;;;5.68;100.00;100770.75;4978407;28;20034;-75
2022/11/28 08:25:21;;;;;;;34.42;15.77;;;;;;;5.75;100.00;100777.84;4982273;28;20088;-75
2022/11/28 08:27:47;;;;;;;28.92;13.93;;;;;;;5.81;100.00;100779.13;4965680;28;20042;-75
2022/11/28 08:30:12;;;;;;;46.08;19.35;;;;;;;5.81;100.00;100779.94;4967372;28;20034;-76
2022/11/28 08:32:38;;;;;;;21.20;11.98;;;;;;;5.81;100.00;100777.34;4961847;28;20030;-75
2022/11/28 08:35:04;;;;;;;42.28;20.38;;;;;;;5.77;100.00;100780.31;4969018;28;20073;-75
2022/11/28 08:37:30;;;;;;;34.85;18.27;;;;;;;5.73;100.00;100778.94;4963031;28;20394;-74
2022/11/28 08:39:55;;;;;;;26.15;13.40;;;;;;;5.82;100.00;100784.13;4951579;28;20094;-75
2022/11/28 08:42:21;;;;;;;28.00;13.98;;;;;;;5.84;100.00;100784.03;4982463;28;20045;-75
2022/11/28 08:44:46;;;;;;;25.88;12.60;;;;;;;5.96;100.00;100789.94;4951209;28;20026;-74
2022/11/28 08:47:12;;;;;;;24.15;12.93;;;;;;;5.91;100.00;100787.69;4971662;28;20424;-76
2022/11/28 08:49:38;;;;;;;25.35;12.45;;;;;;;5.77;100.00;100791.41;4976626;28;20031;-75
2022/11/28 08:52:04;;;;;;;25.30;13.15;;;;;;;5.77;100.00;100783.69;4963834;28;20592;-76
2022/11/28 08:54:30;;;;;;;23.05;12.57;;;;;;;5.85;100.00;100786.44;4961116;28;20034;-74
2022/11/28 08:56:55;;;;;;;26.75;11.30;;;;;;;5.89;100.00;100781.88;4978913;28;20088;-75
2022/11/28 08:59:21;;;;;;;24.58;11.93;;;;;;;5.82;100.00;100785.88;4946468;28;20042;-76
2022/11/28 09:01:46;;;;;;;29.60;12.15;;;;;;;5.81;100.00;100786.84;4957538;28;20054;-75
2022/11/28 09:04:12;;;;;;;24.30;12.02;;;;;;;5.85;100.00;100793.34;4962044;28;20030;-75
2022/11/28 09:06:39;;;;;;;26.73;13.20;;;;;;;5.77;100.00;100798.31;4950315;28;20043;-76
2022/11/28 09:09:04;;;;;;;29.38;12.88;;;;;;;5.76;100.00;100800.06;4949478;28;20041;-76
2022/11/28 09:11:30;;;;;;;29.70;13.57;;;;;;;5.81;100.00;100800.50;4958690;28;20035;-76
2022/11/28 09:13:55;;;;;;;26.90;13.65;;;;;;;5.88;100.00;100800.00;4968440;28;20641;-76
2022/11/28 09:16:21;;;;;;;30.08;14.07;;;;;;;5.94;100.00;100800.34;4966742;28;20035;-75
2022/11/28 09:18:46;;;;;;;24.55;13.07;;;;;;;5.86;100.00;100807.88;4965415;28;20046;-76
2022/11/28 09:21:14;;;;;;;23.88;11.80;;;;;;;5.83;100.00;100808.13;4968814;28;20034;-77
2022/11/28 09:23:41;;;;;;;29.17;12.65;;;;;;;5.81;100.00;100810.81;4984552;28;20034;-76
2022/11/28 09:26:20;;;;;;;26.98;13.48;;;;;;;5.90;100.00;100811.81;4982945;28;20061;-77
2022/11/28 09:28:46;;;;;;;24.13;12.80;;;;;;;5.89;100.00;100811.94;4970828;28;20085;-76
2022/11/28 09:31:14;;;;;;;25.83;13.50;;;;;;;5.85;100.00;100819.09;4966874;28;20034;-76
2022/11/28 09:33:41;;;;;;;30.02;13.70;;;;;;;5.96;100.00;100811.34;4965499;28;20133;-77
2022/11/28 09:36:09;;;;;;;25.13;13.10;;;;;;;5.90;100.00;100821.31;4978439;28;20030;-76
2022/11/28 09:38:35;;;;;;;27.35;12.80;;;;;;;5.98;100.00;100824.91;4982124;28;20053;-76
2022/11/28 09:41:01;;;;;;;28.90;13.13;;;;;;;6.01;100.00;100819.53;4961807;28;20049;-75
2022/11/28 09:43:26;;;;;;;20.20;11.50;;;;;;;6.01;100.00;100819.53;4980595;28;20026;-75
2022/11/28 09:45:53;;;;;;;28.27;13.60;;;;;;;6.08;100.00;100819.00;4982360;28;20701;-76
2022/11/28 09:48:33;;;;;;;33.35;14.93;;;;;;;6.07;100.00;100825.91;4965617;28;20053;-76
2022/11/28 09:51:25;;;;;;;36.85;15.77;;;;;;;6.17;100.00;100820.81;4965243;28;20049;-76
2022/11/28 09:54:15;;;;;;;33.28;16.55;;;;;;;6.17;100.00;100824.22;4979148;28;20034;-77
2022/11/28 09:56:43;;;;;;;30.95;14.25;;;;;;;6.19;100.00;100817.16;4965971;28;20050;-76
2022/11/28 09:59:28;;;;;;;34.70;17.13;;;;;;;6.16;100.00;100819.19;4984778;28;20030;-76
2022/11/28 10:02:22;;;;;;;28.23;12.98;;;;;;;6.20;100.00;100813.66;4970570;28;20754;-75
2022/11/28 10:05:23;;;;;;;24.92;11.27;;;;;;;6.31;100.00;100814.53;4967226;28;20038;-76
2022/11/28 10:08:12;;;;;;;23.15;11.80;;;;;;;6.30;100.00;100810.34;4928686;28;20043;-75
2022/11/28 10:11:02;;;;;;;24.13;12.70;;;;;;;6.20;100.00;100805.13;4950750;28;20047;-76
2022/11/28 10:13:44;;;;;;;33.80;12.13;;;;;;;6.30;100.00;100808.56;4920728;28;20047;-77
2022/11/28 10:16:19;;;;;;;28.70;13.35;;;;;;;6.32;100.00;100801.53;4981423;28;20045;-76
2022/11/28 10:18:53;;;;;;;24.38;13.10;;;;;;;6.27;100.00;100801.09;4968013;28;20042;-76
2022/11/28 10:21:21;;;;;;;27.52;12.60;;;;;;;6.33;100.00;100803.16;4963498;28;20070;-76
2022/11/28 10:23:51;;;;;;;32.45;13.70;;;;;;;6.35;100.00;100800.47;4968776;28;20533;-76
2022/11/28 10:26:39;;;;;;;24.00;12.80;;;;;;;6.36;100.00;100800.31;4964548;28;20485;-76
2022/11/28 10:29:29;;;;;;;21.85;11.57;;;;;;;6.39;100.00;100801.84;4950730;28;20038;-76
2022/11/28 10:32:00;;;;;;;18.58;10.35;;;;;;;6.38;100.00;100803.56;4962795;28;20050;-76
2022/11/28 10:34:38;;;;;;;18.43;11.07;;;;;;;6.40;100.00;100806.88;4962558;28;20073;-76
2022/11/28 10:37:16;;;;;;;21.00;10.82;;;;;;;6.50;100.00;100800.91;4981079;28;20047;-76
2022/11/28 10:39:43;;;;;;;20.85;11.52;;;;;;;6.49;100.00;100804.44;4980852;28;20034;-76
2022/11/28 10:42:31;;;;;;;25.10;11.60;;;;;;;6.49;100.00;100804.44;4949435;28;20129;-76
2022/11/28 10:45:28;;;;;;;22.05;11.73;;;;;;;6.49;100.00;100804.44;4966875;28;20038;-76
2022/11/28 10:48:18;;;;;;;31.50;12.00;;;;;;;6.48;100.00;100801.06;4968194;28;20065;-74
2022/11/28 10:50:49;;;;;;;23.42;10.48;;;;;;;6.42;100.00;100810.13;4961898;28;21360;-76
2022/11/28 10:53:44;;;;;;;22.60;11.23;;;;;;;6.50;100.00;100800.91;4975720;28;20133;-76
2022/11/28 10:56:18;;;;;;;19.13;9.98;;;;;;;6.50;100.00;100794.03;4975588;28;20038;-76
2022/11/28 10:58:43;;;;;;;24.77;12.23;;;;;;;6.62;100.00;100800.69;4984702;28;20046;-76
2022/11/28 11:01:09;;;;;;;25.63;11.57;;;;;;;6.54;100.00;100804.88;4953404;28;20033;-76
2022/11/28 11:03:37;;;;;;;27.70;11.73;;;;;;;6.54;100.00;100800.53;4979044;28;20488;-76
2022/11/28 11:06:03;;;;;;;23.42;11.35;;;;;;;6.66;100.00;100805.59;4966343;28;20685;-76
2022/11/28 11:08:33;;;;;;;21.92;11.55;;;;;;;6.55;100.00;100791.84;4959627;28;20042;-76
2022/11/28 11:11:04;;;;;;;21.80;10.27;;;;;;;6.61;100.00;100799.09;4980173;28;20065;-76
2022/11/28 11:13:54;;;;;;;19.55;11.00;;;;;;;6.62;100.00;100802.47;4947519;28;20030;-76
2022/11/28 11:16:19;;;;;;;19.92;10.88;;;;;;;6.64;100.00;100792.84;4965895;28;20043;-76
2022/11/28 11:18:45;;;;;;;20.33;10.82;;;;;;;6.70;100.00;100794.91;4979501;28;20396;-77
2022/11/28 11:21:23;;;;;;;24.58;12.10;;;;;;;6.63;100.00;100797.19;4961979;28;20404;-76
2022/11/28 11:24:11;;;;;;;24.17;12.52;;;;;;;6.66;100.00;100800.44;4949129;28;20081;-76
2022/11/28 11:26:40;;;;;;;21.98;10.63;;;;;;;6.69;100.00;100793.28;4976451;28;20049;-76
2022/11/28 11:29:26;;;;;;;24.85;11.52;;;;;;;6.69;100.00;100805.34;4962956;28;20117;-76